sensor_id;sensor_type;location;lat;lon;timestamp;temperature;humidity
55004;DHT22;40900;52.710;6.438;2023-07-13T00:01:47;16.80;99.90
55004;DHT22;40900;52.710;6.438;2023-07-13T00:04:18;16.80;99.90
55004;DHT22;40900;52.710;6.438;2023-07-13T00:06:45;16.80;99.90
55004;DHT22;40900;52.710;6.438;2023-07-13T00:09:15;16.70;99.90
55004;DHT22;40900;52.710;6.438;2023-07-13T00:11:42;16.80;99.90
55004;DHT22;40900;52.710;6.438;2023-07-13T00:14:09;16.80;99.90
55004;DHT22;40900;52.710;6.438;2023-07-13T00:16:37;16.70;99.90
55004;DHT22;40900;52.710;6.438;2023-07-13T00:19:03;16.60;99.90
55004;DHT22;40900;52.710;6.438;2023-07-13T00:21:29;16.60;99.90
55004;DHT22;40900;52.710;6.438;2023-07-13T00:23:55;16.60;99.90
55004;DHT22;40900;52.710;6.438;2023-07-13T00:26:21;16.60;99.90
55004;DHT22;40900;52.710;6.438;2023-07-13T00:28:47;16.70;99.90
55004;DHT22;40900;52.710;6.438;2023-07-13T00:31:13;16.70;99.90
55004;DHT22;40900;52.710;6.438;2023-07-13T00:33:42;16.70;99.90
55004;DHT22;40900;52.710;6.438;2023-07-13T00:36:09;16.70;99.90
55004;DHT22;40900;52.710;6.438;2023-07-13T00:38:35;16.60;99.90
55004;DHT22;40900;52.710;6.438;2023-07-13T00:41:02;16.60;99.90
55004;DHT22;40900;52.710;6.438;2023-07-13T00:43:29;16.70;99.90
55004;DHT22;40900;52.710;6.438;2023-07-13T00:48:27;16.60;99.90
55004;DHT22;40900;52.710;6.438;2023-07-13T00:50:56;16.50;99.90
55004;DHT22;40900;52.710;6.438;2023-07-13T00:53:25;16.50;99.90
55004;DHT22;40900;52.710;6.438;2023-07-13T00:55:53;16.50;99.90
55004;DHT22;40900;52.710;6.438;2023-07-13T00:58:20;16.50;99.90
55004;DHT22;40900;52.710;6.438;2023-07-13T01:00:47;16.50;99.90
55004;DHT22;40900;52.710;6.438;2023-07-13T01:03:15;16.40;99.90
55004;DHT22;40900;52.710;6.438;2023-07-13T01:05:40;16.50;99.90
55004;DHT22;40900;52.710;6.438;2023-07-13T01:08:07;16.40;99.90
55004;DHT22;40900;52.710;6.438;2023-07-13T01:10:33;16.40;99.90
55004;DHT22;40900;52.710;6.438;2023-07-13T01:13:07;16.40;99.90
55004;DHT22;40900;52.710;6.438;2023-07-13T01:15:43;16.40;99.90
55004;DHT22;40900;52.710;6.438;2023-07-13T01:18:23;16.30;99.90
55004;DHT22;40900;52.710;6.438;2023-07-13T01:21:08;16.30;99.90
55004;DHT22;40900;52.710;6.438;2023-07-13T01:23:34;16.30;99.90
55004;DHT22;40900;52.710;6.438;2023-07-13T01:26:00;16.30;99.90
55004;DHT22;40900;52.710;6.438;2023-07-13T01:28:27;16.40;99.90
55004;DHT22;40900;52.710;6.438;2023-07-13T01:30:55;16.40;99.90
55004;DHT22;40900;52.710;6.438;2023-07-13T01:33:21;16.30;99.90
55004;DHT22;40900;52.710;6.438;2023-07-13T01:35:47;16.40;99.90
55004;DHT22;40900;52.710;6.438;2023-07-13T01:38:18;16.40;99.90
55004;DHT22;40900;52.710;6.438;2023-07-13T01:40:44;16.40;99.90
55004;DHT22;40900;52.710;6.438;2023-07-13T01:43:11;16.40;99.90
55004;DHT22;40900;52.710;6.438;2023-07-13T01:45:36;16.40;99.90
55004;DHT22;40900;52.710;6.438;2023-07-13T01:48:02;16.30;99.90
55004;DHT22;40900;52.710;6.438;2023-07-13T01:50:28;16.30;99.90
55004;DHT22;40900;52.710;6.438;2023-07-13T01:52:54;16.30;99.90
55004;DHT22;40900;52.710;6.438;2023-07-13T01:55:21;16.30;99.90
55004;DHT22;40900;52.710;6.438;2023-07-13T01:57:47;16.30;99.90
55004;DHT22;40900;52.710;6.438;2023-07-13T02:00:14;16.20;99.90
55004;DHT22;40900;52.710;6.438;2023-07-13T02:02:40;16.20;99.90
55004;DHT22;40900;52.710;6.438;2023-07-13T02:05:06;16.10;99.90
55004;DHT22;40900;52.710;6.438;2023-07-13T02:07:32;16.10;99.90
55004;DHT22;40900;52.710;6.438;2023-07-13T02:09:58;16.10;99.90
55004;DHT22;40900;52.710;6.438;2023-07-13T02:12:24;16.00;99.90
55004;DHT22;40900;52.710;6.438;2023-07-13T02:14:49;16.00;99.90
55004;DHT22;40900;52.710;6.438;2023-07-13T02:17:15;16.00;99.90
55004;DHT22;40900;52.710;6.438;2023-07-13T02:19:41;16.00;99.90
55004;DHT22;40900;52.710;6.438;2023-07-13T02:22:06;16.00;99.90
55004;DHT22;40900;52.710;6.438;2023-07-13T02:24:32;16.00;99.90
55004;DHT22;40900;52.710;6.438;2023-07-13T02:26:58;16.00;99.90
55004;DHT22;40900;52.710;6.438;2023-07-13T02:29:24;16.00;99.90
55004;DHT22;40900;52.710;6.438;2023-07-13T02:31:49;16.00;99.90
55004;DHT22;40900;52.710;6.438;2023-07-13T02:34:15;16.00;99.90
55004;DHT22;40900;52.710;6.438;2023-07-13T02:36:41;15.90;99.90
55004;DHT22;40900;52.710;6.438;2023-07-13T02:39:07;15.90;99.90
55004;DHT22;40900;52.710;6.438;2023-07-13T02:41:33;15.90;99.90
55004;DHT22;40900;52.710;6.438;2023-07-13T02:43:59;15.90;99.90
55004;DHT22;40900;52.710;6.438;2023-07-13T02:46:33;15.90;99.90
55004;DHT22;40900;52.710;6.438;2023-07-13T02:48:59;15.80;99.90
55004;DHT22;40900;52.710;6.438;2023-07-13T02:51:25;15.80;99.90
55004;DHT22;40900;52.710;6.438;2023-07-13T02:53:51;15.90;99.90
55004;DHT22;40900;52.710;6.438;2023-07-13T02:56:22;15.90;99.90
55004;DHT22;40900;52.710;6.438;2023-07-13T02:58:48;15.80;99.90
55004;DHT22;40900;52.710;6.438;2023-07-13T03:01:14;15.70;99.90
55004;DHT22;40900;52.710;6.438;2023-07-13T03:03:44;15.70;99.90
55004;DHT22;40900;52.710;6.438;2023-07-13T03:06:11;15.70;99.90
55004;DHT22;40900;52.710;6.438;2023-07-13T03:08:37;15.70;99.90
55004;DHT22;40900;52.710;6.438;2023-07-13T03:11:05;15.70;99.90
55004;DHT22;40900;52.710;6.438;2023-07-13T03:13:31;15.70;99.90
55004;DHT22;40900;52.710;6.438;2023-07-13T03:15:57;15.70;99.90
55004;DHT22;40900;52.710;6.438;2023-07-13T03:18:23;15.70;99.90
55004;DHT22;40900;52.710;6.438;2023-07-13T03:20:50;15.70;99.90
55004;DHT22;40900;52.710;6.438;2023-07-13T03:23:16;15.80;99.90
55004;DHT22;40900;52.710;6.438;2023-07-13T03:25:43;15.70;99.90
55004;DHT22;40900;52.710;6.438;2023-07-13T03:28:11;15.70;99.90
55004;DHT22;40900;52.710;6.438;2023-07-13T03:30:37;15.60;99.90
55004;DHT22;40900;52.710;6.438;2023-07-13T03:33:03;15.60;99.90
55004;DHT22;40900;52.710;6.438;2023-07-13T03:35:29;15.50;99.90
55004;DHT22;40900;52.710;6.438;2023-07-13T03:37:54;15.50;99.90
55004;DHT22;40900;52.710;6.438;2023-07-13T03:40:20;15.50;99.90
55004;DHT22;40900;52.710;6.438;2023-07-13T03:42:46;15.50;99.90
55004;DHT22;40900;52.710;6.438;2023-07-13T03:45:12;15.50;99.90
55004;DHT22;40900;52.710;6.438;2023-07-13T03:47:38;15.50;99.90
55004;DHT22;40900;52.710;6.438;2023-07-13T03:50:04;15.50;99.90
55004;DHT22;40900;52.710;6.438;2023-07-13T03:52:29;15.50;99.90
55004;DHT22;40900;52.710;6.438;2023-07-13T03:54:55;15.60;99.90
55004;DHT22;40900;52.710;6.438;2023-07-13T03:57:21;15.60;99.90
55004;DHT22;40900;52.710;6.438;2023-07-13T03:59:47;15.60;99.90
55004;DHT22;40900;52.710;6.438;2023-07-13T04:02:12;15.60;99.90
55004;DHT22;40900;52.710;6.438;2023-07-13T04:04:38;15.60;99.90
55004;DHT22;40900;52.710;6.438;2023-07-13T04:07:06;15.50;99.90
55004;DHT22;40900;52.710;6.438;2023-07-13T04:09:34;15.50;99.90
55004;DHT22;40900;52.710;6.438;2023-07-13T04:12:00;15.50;99.90
55004;DHT22;40900;52.710;6.438;2023-07-13T04:14:25;15.30;99.90
55004;DHT22;40900;52.710;6.438;2023-07-13T04:16:51;15.30;99.90
55004;DHT22;40900;52.710;6.438;2023-07-13T04:19:17;15.30;99.90
55004;DHT22;40900;52.710;6.438;2023-07-13T04:21:43;15.30;99.90
55004;DHT22;40900;52.710;6.438;2023-07-13T04:24:08;15.30;99.90
55004;DHT22;40900;52.710;6.438;2023-07-13T04:26:34;15.40;99.90
55004;DHT22;40900;52.710;6.438;2023-07-13T04:29:04;15.40;99.90
55004;DHT22;40900;52.710;6.438;2023-07-13T04:31:30;15.30;99.90
55004;DHT22;40900;52.710;6.438;2023-07-13T04:33:56;15.30;99.90
55004;DHT22;40900;52.710;6.438;2023-07-13T04:36:22;15.30;99.90
55004;DHT22;40900;52.710;6.438;2023-07-13T04:38:48;15.40;99.90
55004;DHT22;40900;52.710;6.438;2023-07-13T04:41:14;15.40;99.90
55004;DHT22;40900;52.710;6.438;2023-07-13T04:43:40;15.40;99.90
55004;DHT22;40900;52.710;6.438;2023-07-13T04:46:09;15.30;99.90
55004;DHT22;40900;52.710;6.438;2023-07-13T04:48:35;15.30;99.90
55004;DHT22;40900;52.710;6.438;2023-07-13T04:51:01;15.30;99.90
55004;DHT22;40900;52.710;6.438;2023-07-13T04:53:27;15.30;99.90
55004;DHT22;40900;52.710;6.438;2023-07-13T04:55:53;15.30;99.90
55004;DHT22;40900;52.710;6.438;2023-07-13T04:58:20;15.40;99.90
55004;DHT22;40900;52.710;6.438;2023-07-13T05:00:47;15.40;99.90
55004;DHT22;40900;52.710;6.438;2023-07-13T05:03:12;15.40;99.90
55004;DHT22;40900;52.710;6.438;2023-07-13T05:05:38;15.40;99.90
55004;DHT22;40900;52.710;6.438;2023-07-13T05:08:04;15.40;99.90
55004;DHT22;40900;52.710;6.438;2023-07-13T05:10:30;15.50;99.90
55004;DHT22;40900;52.710;6.438;2023-07-13T05:12:55;15.40;99.90
55004;DHT22;40900;52.710;6.438;2023-07-13T05:15:22;15.50;99.90
55004;DHT22;40900;52.710;6.438;2023-07-13T05:17:49;15.50;99.90
55004;DHT22;40900;52.710;6.438;2023-07-13T05:20:15;15.50;99.90
55004;DHT22;40900;52.710;6.438;2023-07-13T05:22:42;15.60;99.90
55004;DHT22;40900;52.710;6.438;2023-07-13T05:25:09;15.70;99.90
55004;DHT22;40900;52.710;6.438;2023-07-13T05:27:35;15.70;99.90
55004;DHT22;40900;52.710;6.438;2023-07-13T05:30:03;15.80;99.90
55004;DHT22;40900;52.710;6.438;2023-07-13T05:32:29;15.80;99.90
55004;DHT22;40900;52.710;6.438;2023-07-13T05:34:55;15.80;99.90
55004;DHT22;40900;52.710;6.438;2023-07-13T05:37:20;15.90;99.90
55004;DHT22;40900;52.710;6.438;2023-07-13T05:39:46;15.80;99.90
55004;DHT22;40900;52.710;6.438;2023-07-13T05:42:12;16.00;99.90
55004;DHT22;40900;52.710;6.438;2023-07-13T05:44:38;15.90;99.90
55004;DHT22;40900;52.710;6.438;2023-07-13T05:47:04;16.00;99.90
55004;DHT22;40900;52.710;6.438;2023-07-13T05:49:30;16.00;99.90
55004;DHT22;40900;52.710;6.438;2023-07-13T05:51:56;16.10;99.90
55004;DHT22;40900;52.710;6.438;2023-07-13T05:54:22;16.00;99.90
55004;DHT22;40900;52.710;6.438;2023-07-13T05:56:48;16.10;99.90
55004;DHT22;40900;52.710;6.438;2023-07-13T05:59:14;16.20;99.90
55004;DHT22;40900;52.710;6.438;2023-07-13T06:01:40;16.20;99.90
55004;DHT22;40900;52.710;6.438;2023-07-13T06:04:06;16.30;99.90
55004;DHT22;40900;52.710;6.438;2023-07-13T06:06:32;16.40;99.90
55004;DHT22;40900;52.710;6.438;2023-07-13T06:08:58;16.50;99.90
55004;DHT22;40900;52.710;6.438;2023-07-13T06:11:26;16.50;99.90
55004;DHT22;40900;52.710;6.438;2023-07-13T06:13:53;16.60;99.90
55004;DHT22;40900;52.710;6.438;2023-07-13T06:16:19;16.70;99.90
55004;DHT22;40900;52.710;6.438;2023-07-13T06:18:46;16.80;99.90
55004;DHT22;40900;52.710;6.438;2023-07-13T06:21:15;16.90;99.90
55004;DHT22;40900;52.710;6.438;2023-07-13T06:23:41;17.00;99.90
55004;DHT22;40900;52.710;6.438;2023-07-13T06:26:07;17.10;99.90
55004;DHT22;40900;52.710;6.438;2023-07-13T06:28:34;17.20;99.90
55004;DHT22;40900;52.710;6.438;2023-07-13T06:31:00;17.40;99.90
55004;DHT22;40900;52.710;6.438;2023-07-13T06:33:26;17.50;99.90
55004;DHT22;40900;52.710;6.438;2023-07-13T06:35:52;17.70;99.90
55004;DHT22;40900;52.710;6.438;2023-07-13T06:38:20;17.80;99.90
55004;DHT22;40900;52.710;6.438;2023-07-13T06:40:46;17.70;99.90
55004;DHT22;40900;52.710;6.438;2023-07-13T06:43:12;17.70;99.90
55004;DHT22;40900;52.710;6.438;2023-07-13T06:45:43;17.80;99.90
55004;DHT22;40900;52.710;6.438;2023-07-13T06:48:11;17.70;99.90
55004;DHT22;40900;52.710;6.438;2023-07-13T06:50:37;17.70;99.90
55004;DHT22;40900;52.710;6.438;2023-07-13T06:53:03;17.60;99.90
55004;DHT22;40900;52.710;6.438;2023-07-13T06:55:29;17.60;99.90
55004;DHT22;40900;52.710;6.438;2023-07-13T06:57:54;17.60;99.90
55004;DHT22;40900;52.710;6.438;2023-07-13T07:00:20;17.60;99.90
55004;DHT22;40900;52.710;6.438;2023-07-13T07:02:46;17.60;99.90
55004;DHT22;40900;52.710;6.438;2023-07-13T07:05:12;17.60;99.90
55004;DHT22;40900;52.710;6.438;2023-07-13T07:07:37;17.50;99.90
55004;DHT22;40900;52.710;6.438;2023-07-13T07:10:03;17.40;99.90
55004;DHT22;40900;52.710;6.438;2023-07-13T07:12:29;17.40;99.90
55004;DHT22;40900;52.710;6.438;2023-07-13T07:14:55;17.40;99.90
55004;DHT22;40900;52.710;6.438;2023-07-13T07:17:21;17.50;99.90
55004;DHT22;40900;52.710;6.438;2023-07-13T07:19:50;17.50;99.90
55004;DHT22;40900;52.710;6.438;2023-07-13T07:22:17;17.60;99.90
55004;DHT22;40900;52.710;6.438;2023-07-13T07:24:44;17.70;99.90
55004;DHT22;40900;52.710;6.438;2023-07-13T07:27:11;17.70;99.90
55004;DHT22;40900;52.710;6.438;2023-07-13T07:29:37;17.70;99.90
55004;DHT22;40900;52.710;6.438;2023-07-13T07:32:06;17.70;99.90
55004;DHT22;40900;52.710;6.438;2023-07-13T07:34:32;17.80;99.90
55004;DHT22;40900;52.710;6.438;2023-07-13T07:37:00;17.80;99.90
55004;DHT22;40900;52.710;6.438;2023-07-13T07:39:28;17.90;99.90
55004;DHT22;40900;52.710;6.438;2023-07-13T07:41:56;18.10;99.90
55004;DHT22;40900;52.710;6.438;2023-07-13T07:44:22;18.20;99.90
55004;DHT22;40900;52.710;6.438;2023-07-13T07:46:48;18.30;99.90
55004;DHT22;40900;52.710;6.438;2023-07-13T07:49:15;18.30;99.90
55004;DHT22;40900;52.710;6.438;2023-07-13T07:51:41;18.30;99.90
55004;DHT22;40900;52.710;6.438;2023-07-13T07:54:08;18.40;99.90
55004;DHT22;40900;52.710;6.438;2023-07-13T07:56:34;18.50;99.90
55004;DHT22;40900;52.710;6.438;2023-07-13T07:59:00;18.80;99.90
55004;DHT22;40900;52.710;6.438;2023-07-13T08:01:26;19.20;99.90
55004;DHT22;40900;52.710;6.438;2023-07-13T08:03:52;19.50;99.90
55004;DHT22;40900;52.710;6.438;2023-07-13T08:06:17;20.10;99.90
55004;DHT22;40900;52.710;6.438;2023-07-13T08:08:45;20.60;99.90
55004;DHT22;40900;52.710;6.438;2023-07-13T08:11:11;20.50;99.90
55004;DHT22;40900;52.710;6.438;2023-07-13T08:13:37;20.40;99.90
55004;DHT22;40900;52.710;6.438;2023-07-13T08:16:05;20.30;99.90
55004;DHT22;40900;52.710;6.438;2023-07-13T08:18:31;20.30;99.90
55004;DHT22;40900;52.710;6.438;2023-07-13T08:20:57;20.10;99.90
55004;DHT22;40900;52.710;6.438;2023-07-13T08:23:24;19.90;99.90
55004;DHT22;40900;52.710;6.438;2023-07-13T08:25:54;19.80;99.90
55004;DHT22;40900;52.710;6.438;2023-07-13T08:28:23;20.00;99.90
55004;DHT22;40900;52.710;6.438;2023-07-13T08:30:49;20.00;99.90
55004;DHT22;40900;52.710;6.438;2023-07-13T08:33:19;19.90;99.90
55004;DHT22;40900;52.710;6.438;2023-07-13T08:35:47;19.70;99.90
55004;DHT22;40900;52.710;6.438;2023-07-13T08:38:13;19.90;99.90
55004;DHT22;40900;52.710;6.438;2023-07-13T08:40:39;19.80;99.90
55004;DHT22;40900;52.710;6.438;2023-07-13T08:43:12;19.60;99.90
55004;DHT22;40900;52.710;6.438;2023-07-13T08:45:43;19.40;99.90
55004;DHT22;40900;52.710;6.438;2023-07-13T08:48:20;19.30;99.90
55004;DHT22;40900;52.710;6.438;2023-07-13T08:50:58;19.20;99.90
55004;DHT22;40900;52.710;6.438;2023-07-13T08:53:34;19.10;99.90
55004;DHT22;40900;52.710;6.438;2023-07-13T08:56:01;19.00;99.90
55004;DHT22;40900;52.710;6.438;2023-07-13T08:58:27;18.70;99.90
55004;DHT22;40900;52.710;6.438;2023-07-13T09:03:50;17.50;99.90
55004;DHT22;40900;52.710;6.438;2023-07-13T09:06:23;16.70;99.90
55004;DHT22;40900;52.710;6.438;2023-07-13T09:09:01;16.40;99.90
55004;DHT22;40900;52.710;6.438;2023-07-13T09:16:58;15.60;99.90
55004;DHT22;40900;52.710;6.438;2023-07-13T09:19:31;15.60;99.90
55004;DHT22;40900;52.710;6.438;2023-07-13T09:21:59;15.50;99.90
55004;DHT22;40900;52.710;6.438;2023-07-13T09:24:36;15.40;99.90
55004;DHT22;40900;52.710;6.438;2023-07-13T09:30:33;15.40;99.90
55004;DHT22;40900;52.710;6.438;2023-07-13T09:32:56;15.40;99.90
55004;DHT22;40900;52.710;6.438;2023-07-13T09:35:27;15.50;99.90
55004;DHT22;40900;52.710;6.438;2023-07-13T09:38:19;15.60;99.90
55004;DHT22;40900;52.710;6.438;2023-07-13T09:40:56;15.70;99.90
55004;DHT22;40900;52.710;6.438;2023-07-13T09:43:24;15.80;99.90
55004;DHT22;40900;52.710;6.438;2023-07-13T09:45:50;15.90;99.90
55004;DHT22;40900;52.710;6.438;2023-07-13T09:48:17;15.90;99.90
55004;DHT22;40900;52.710;6.438;2023-07-13T09:50:44;15.70;99.90
55004;DHT22;40900;52.710;6.438;2023-07-13T09:53:18;15.70;99.90
55004;DHT22;40900;52.710;6.438;2023-07-13T09:55:46;15.80;99.90
55004;DHT22;40900;52.710;6.438;2023-07-13T09:58:24;15.70;99.90
55004;DHT22;40900;52.710;6.438;2023-07-13T10:00:58;15.80;99.90
55004;DHT22;40900;52.710;6.438;2023-07-13T10:03:33;16.00;99.90
55004;DHT22;40900;52.710;6.438;2023-07-13T10:06:17;16.30;99.90
55004;DHT22;40900;52.710;6.438;2023-07-13T10:08:47;16.70;99.90
55004;DHT22;40900;52.710;6.438;2023-07-13T10:14:00;17.90;99.90
55004;DHT22;40900;52.710;6.438;2023-07-13T10:16:35;18.60;99.90
55004;DHT22;40900;52.710;6.438;2023-07-13T10:19:29;19.60;99.90
55004;DHT22;40900;52.710;6.438;2023-07-13T10:21:54;20.30;99.90
55004;DHT22;40900;52.710;6.438;2023-07-13T10:24:23;21.10;99.90
55004;DHT22;40900;52.710;6.438;2023-07-13T10:27:03;21.30;99.90
55004;DHT22;40900;52.710;6.438;2023-07-13T10:29:36;21.50;99.90
55004;DHT22;40900;52.710;6.438;2023-07-13T10:32:09;22.10;99.90
55004;DHT22;40900;52.710;6.438;2023-07-13T10:34:35;22.40;99.90
55004;DHT22;40900;52.710;6.438;2023-07-13T10:37:02;22.30;99.90
55004;DHT22;40900;52.710;6.438;2023-07-13T10:39:28;22.00;99.90
55004;DHT22;40900;52.710;6.438;2023-07-13T10:42:03;21.50;99.90
55004;DHT22;40900;52.710;6.438;2023-07-13T10:44:32;20.50;99.90
55004;DHT22;40900;52.710;6.438;2023-07-13T10:47:18;20.00;99.90
55004;DHT22;40900;52.710;6.438;2023-07-13T10:49:44;19.50;99.90
55004;DHT22;40900;52.710;6.438;2023-07-13T10:55:41;19.00;99.90
55004;DHT22;40900;52.710;6.438;2023-07-13T11:00:50;16.50;99.90
55004;DHT22;40900;52.710;6.438;2023-07-13T11:03:20;16.00;99.90
55004;DHT22;40900;52.710;6.438;2023-07-13T11:06:03;15.90;99.90
55004;DHT22;40900;52.710;6.438;2023-07-13T11:08:38;15.90;99.90
55004;DHT22;40900;52.710;6.438;2023-07-13T11:11:37;16.20;99.90
55004;DHT22;40900;52.710;6.438;2023-07-13T11:16:52;17.80;99.90
55004;DHT22;40900;52.710;6.438;2023-07-13T11:24:30;18.40;99.90
55004;DHT22;40900;52.710;6.438;2023-07-13T11:29:51;19.00;99.90
55004;DHT22;40900;52.710;6.438;2023-07-13T11:32:25;19.00;99.90
55004;DHT22;40900;52.710;6.438;2023-07-13T11:34:55;19.10;99.90
55004;DHT22;40900;52.710;6.438;2023-07-13T11:37:22;19.30;99.90
55004;DHT22;40900;52.710;6.438;2023-07-13T11:39:50;19.50;99.90
55004;DHT22;40900;52.710;6.438;2023-07-13T11:42:18;19.60;99.90
55004;DHT22;40900;52.710;6.438;2023-07-13T11:44:47;19.70;99.90
55004;DHT22;40900;52.710;6.438;2023-07-13T11:47:21;19.90;99.90
55004;DHT22;40900;52.710;6.438;2023-07-13T11:49:53;19.90;99.90
55004;DHT22;40900;52.710;6.438;2023-07-13T11:52:35;20.20;99.90
55004;DHT22;40900;52.710;6.438;2023-07-13T11:55:08;20.10;99.90
55004;DHT22;40900;52.710;6.438;2023-07-13T11:57:44;20.20;99.90
55004;DHT22;40900;52.710;6.438;2023-07-13T12:00:14;20.40;99.90
55004;DHT22;40900;52.710;6.438;2023-07-13T12:02:44;20.40;99.90
55004;DHT22;40900;52.710;6.438;2023-07-13T12:05:12;20.60;99.90
55004;DHT22;40900;52.710;6.438;2023-07-13T12:07:40;20.50;99.90
55004;DHT22;40900;52.710;6.438;2023-07-13T12:12:37;20.60;99.90
55004;DHT22;40900;52.710;6.438;2023-07-13T12:15:07;20.50;99.90
55004;DHT22;40900;52.710;6.438;2023-07-13T12:17:34;20.60;99.90
55004;DHT22;40900;52.710;6.438;2023-07-13T12:20:03;20.90;99.90
55004;DHT22;40900;52.710;6.438;2023-07-13T12:22:32;21.40;99.90
55004;DHT22;40900;52.710;6.438;2023-07-13T12:24:59;21.50;99.90
55004;DHT22;40900;52.710;6.438;2023-07-13T12:27:27;21.50;99.90
55004;DHT22;40900;52.710;6.438;2023-07-13T12:32:21;21.50;99.90
55004;DHT22;40900;52.710;6.438;2023-07-13T12:35:13;21.60;99.90
55004;DHT22;40900;52.710;6.438;2023-07-13T12:37:42;21.70;99.90
55004;DHT22;40900;52.710;6.438;2023-07-13T12:40:19;21.80;99.90
55004;DHT22;40900;52.710;6.438;2023-07-13T12:42:48;21.90;99.90
55004;DHT22;40900;52.710;6.438;2023-07-13T12:45:22;22.10;99.90
55004;DHT22;40900;52.710;6.438;2023-07-13T12:47:53;22.30;99.90
55004;DHT22;40900;52.710;6.438;2023-07-13T12:50:24;22.50;99.90
55004;DHT22;40900;52.710;6.438;2023-07-13T12:52:59;22.40;99.90
55004;DHT22;40900;52.710;6.438;2023-07-13T12:55:27;22.50;99.90
55004;DHT22;40900;52.710;6.438;2023-07-13T12:57:56;22.50;99.90
55004;DHT22;40900;52.710;6.438;2023-07-13T13:02:55;22.10;99.90
55004;DHT22;40900;52.710;6.438;2023-07-13T13:05:22;22.10;99.90
55004;DHT22;40900;52.710;6.438;2023-07-13T13:07:49;21.90;99.90
55004;DHT22;40900;52.710;6.438;2023-07-13T13:10:15;22.00;99.90
55004;DHT22;40900;52.710;6.438;2023-07-13T13:12:41;22.10;99.90
55004;DHT22;40900;52.710;6.438;2023-07-13T13:15:11;22.20;99.90
55004;DHT22;40900;52.710;6.438;2023-07-13T13:17:40;22.10;99.90
55004;DHT22;40900;52.710;6.438;2023-07-13T13:20:16;22.10;99.90
55004;DHT22;40900;52.710;6.438;2023-07-13T13:22:42;22.20;99.90
55004;DHT22;40900;52.710;6.438;2023-07-13T13:25:13;22.20;99.90
55004;DHT22;40900;52.710;6.438;2023-07-13T13:27:41;22.10;99.90
55004;DHT22;40900;52.710;6.438;2023-07-13T13:32:39;22.00;99.90
55004;DHT22;40900;52.710;6.438;2023-07-13T13:35:07;22.10;99.90
55004;DHT22;40900;52.710;6.438;2023-07-13T13:37:35;22.10;99.90
55004;DHT22;40900;52.710;6.438;2023-07-13T13:40:01;22.30;99.90
55004;DHT22;40900;52.710;6.438;2023-07-13T13:42:26;22.20;99.90
55004;DHT22;40900;52.710;6.438;2023-07-13T13:44:54;21.80;99.90
55004;DHT22;40900;52.710;6.438;2023-07-13T13:47:32;22.00;99.90
55004;DHT22;40900;52.710;6.438;2023-07-13T13:50:09;22.10;99.90
55004;DHT22;40900;52.710;6.438;2023-07-13T13:52:36;22.30;99.90
55004;DHT22;40900;52.710;6.438;2023-07-13T13:55:04;22.40;99.90
55004;DHT22;40900;52.710;6.438;2023-07-13T13:57:31;22.30;99.90
55004;DHT22;40900;52.710;6.438;2023-07-13T13:59:56;22.40;99.90
55004;DHT22;40900;52.710;6.438;2023-07-13T14:02:26;22.50;99.90
55004;DHT22;40900;52.710;6.438;2023-07-13T14:04:58;22.50;99.90
55004;DHT22;40900;52.710;6.438;2023-07-13T14:07:25;22.70;99.90
55004;DHT22;40900;52.710;6.438;2023-07-13T14:09:53;23.00;99.90
55004;DHT22;40900;52.710;6.438;2023-07-13T14:12:19;23.20;99.90
55004;DHT22;40900;52.710;6.438;2023-07-13T14:14:45;23.20;99.90
55004;DHT22;40900;52.710;6.438;2023-07-13T14:17:20;23.20;99.90
55004;DHT22;40900;52.710;6.438;2023-07-13T14:19:48;23.20;99.90
55004;DHT22;40900;52.710;6.438;2023-07-13T14:22:19;23.20;99.90
55004;DHT22;40900;52.710;6.438;2023-07-13T14:24:46;23.10;99.90
55004;DHT22;40900;52.710;6.438;2023-07-13T14:27:12;23.10;99.90
55004;DHT22;40900;52.710;6.438;2023-07-13T14:29:38;23.20;99.90
55004;DHT22;40900;52.710;6.438;2023-07-13T14:32:04;23.30;99.90
55004;DHT22;40900;52.710;6.438;2023-07-13T14:34:31;23.20;99.90
55004;DHT22;40900;52.710;6.438;2023-07-13T14:36:57;23.20;99.90
55004;DHT22;40900;52.710;6.438;2023-07-13T14:39:24;23.40;99.90
55004;DHT22;40900;52.710;6.438;2023-07-13T14:41:53;23.40;99.90
55004;DHT22;40900;52.710;6.438;2023-07-13T14:44:25;23.20;99.90
55004;DHT22;40900;52.710;6.438;2023-07-13T14:46:51;23.10;99.90
55004;DHT22;40900;52.710;6.438;2023-07-13T14:49:59;23.20;99.90
55004;DHT22;40900;52.710;6.438;2023-07-13T14:52:12;23.10;99.90
55004;DHT22;40900;52.710;6.438;2023-07-13T14:54:39;23.00;99.90
55004;DHT22;40900;52.710;6.438;2023-07-13T14:57:16;23.10;99.90
55004;DHT22;40900;52.710;6.438;2023-07-13T14:59:42;23.30;99.90
55004;DHT22;40900;52.710;6.438;2023-07-13T15:02:31;23.30;99.90
55004;DHT22;40900;52.710;6.438;2023-07-13T15:04:58;23.20;99.90
55004;DHT22;40900;52.710;6.438;2023-07-13T15:07:24;23.20;99.90
55004;DHT22;40900;52.710;6.438;2023-07-13T15:09:50;23.30;99.90
55004;DHT22;40900;52.710;6.438;2023-07-13T15:12:19;23.30;99.90
55004;DHT22;40900;52.710;6.438;2023-07-13T15:14:45;23.20;99.90
55004;DHT22;40900;52.710;6.438;2023-07-13T15:19:49;23.00;99.90
55004;DHT22;40900;52.710;6.438;2023-07-13T15:22:15;23.00;99.90
55004;DHT22;40900;52.710;6.438;2023-07-13T15:24:41;23.10;99.90
55004;DHT22;40900;52.710;6.438;2023-07-13T15:27:11;23.10;99.90
55004;DHT22;40900;52.710;6.438;2023-07-13T15:29:37;23.10;99.90
55004;DHT22;40900;52.710;6.438;2023-07-13T15:32:04;23.00;99.90
55004;DHT22;40900;52.710;6.438;2023-07-13T15:34:30;22.80;99.90
55004;DHT22;40900;52.710;6.438;2023-07-13T15:36:56;22.90;99.90
55004;DHT22;40900;52.710;6.438;2023-07-13T15:39:22;23.00;99.90
55004;DHT22;40900;52.710;6.438;2023-07-13T15:41:48;22.80;99.90
55004;DHT22;40900;52.710;6.438;2023-07-13T15:44:39;22.70;99.90
55004;DHT22;40900;52.710;6.438;2023-07-13T15:47:08;22.70;99.90
55004;DHT22;40900;52.710;6.438;2023-07-13T15:49:35;22.80;99.90
55004;DHT22;40900;52.710;6.438;2023-07-13T15:52:00;22.80;99.90
55004;DHT22;40900;52.710;6.438;2023-07-13T15:54:26;22.80;99.90
55004;DHT22;40900;52.710;6.438;2023-07-13T15:56:54;22.90;99.90
55004;DHT22;40900;52.710;6.438;2023-07-13T15:59:20;22.90;99.90
55004;DHT22;40900;52.710;6.438;2023-07-13T16:01:46;22.80;99.90
55004;DHT22;40900;52.710;6.438;2023-07-13T16:04:15;22.90;99.90
55004;DHT22;40900;52.710;6.438;2023-07-13T16:06:41;22.80;99.90
55004;DHT22;40900;52.710;6.438;2023-07-13T16:09:12;22.70;99.90
55004;DHT22;40900;52.710;6.438;2023-07-13T16:11:42;22.60;99.90
55004;DHT22;40900;52.710;6.438;2023-07-13T16:14:13;22.50;99.90
55004;DHT22;40900;52.710;6.438;2023-07-13T16:16:39;22.40;99.90
55004;DHT22;40900;52.710;6.438;2023-07-13T16:19:05;22.50;99.90
55004;DHT22;40900;52.710;6.438;2023-07-13T16:21:44;22.40;99.90
55004;DHT22;40900;52.710;6.438;2023-07-13T16:24:18;22.30;99.90